createdAt,value
2023-05-04T00:00:53.941Z,9.92
2023-05-04T00:03:21.833Z,9.91
2023-05-04T00:05:49.499Z,9.84
2023-05-04T00:08:17.660Z,9.72
2023-05-04T00:10:45.321Z,9.74
2023-05-04T00:13:12.965Z,9.71
2023-05-04T00:15:42.231Z,9.70
2023-05-04T00:18:09.789Z,9.65
2023-05-04T00:20:37.408Z,9.56
2023-05-04T00:23:04.992Z,9.50
2023-05-04T00:25:32.853Z,9.48
2023-05-04T00:28:00.730Z,9.48
2023-05-04T00:30:30.817Z,9.43
2023-05-04T00:32:59.900Z,9.38
2023-05-04T00:35:27.513Z,9.33
2023-05-04T00:37:55.367Z,9.28
2023-05-04T00:40:23.187Z,9.28
2023-05-04T00:42:50.890Z,9.26
2023-05-04T00:45:19.095Z,9.25
2023-05-04T00:47:46.741Z,9.20
2023-05-04T00:50:15.698Z,9.17
2023-05-04T00:52:45.050Z,9.15
2023-05-04T00:55:14.347Z,9.15
2023-05-04T00:57:42.620Z,9.09
2023-05-04T01:00:13.133Z,9.07
2023-05-04T01:02:41.113Z,9.05
2023-05-04T01:05:09.947Z,9.03
2023-05-04T01:07:45.302Z,9.00
2023-05-04T01:10:18.720Z,8.99
2023-05-04T01:12:53.125Z,8.91
2023-05-04T01:15:21.575Z,8.86
2023-05-04T01:17:49.473Z,8.86
2023-05-04T01:20:17.393Z,8.82
2023-05-04T01:22:46.512Z,8.82
2023-05-04T01:25:14.195Z,8.80
2023-05-04T01:27:47.954Z,8.79
2023-05-04T01:30:19.873Z,8.77
2023-05-04T01:32:49.293Z,8.79
2023-05-04T01:35:17.155Z,8.79
2023-05-04T01:37:48.746Z,8.76
2023-05-04T01:40:16.618Z,8.74
2023-05-04T01:42:44.114Z,8.72
2023-05-04T01:45:13.512Z,8.69
2023-05-04T01:47:41.724Z,8.69
2023-05-04T01:50:09.822Z,8.70
2023-05-04T01:52:37.478Z,8.66
2023-05-04T01:55:07.952Z,8.65
2023-05-04T01:57:35.559Z,8.66
2023-05-04T02:00:03.905Z,8.67
2023-05-04T02:02:43.269Z,8.69
2023-05-04T02:05:12.856Z,8.68
2023-05-04T02:07:40.448Z,8.71
2023-05-04T02:10:10.694Z,8.74
2023-05-04T02:12:38.421Z,8.73
2023-05-04T02:15:06.902Z,8.67
2023-05-04T02:17:34.690Z,8.61
2023-05-04T02:20:04.637Z,8.54
2023-05-04T02:22:32.636Z,8.49
2023-05-04T02:25:00.161Z,8.45
2023-05-04T02:27:28.997Z,8.41
2023-05-04T02:29:58.336Z,8.38
2023-05-04T02:32:26.289Z,8.39
2023-05-04T02:34:54.231Z,8.36
2023-05-04T02:37:22.320Z,8.28
2023-05-04T02:39:50.006Z,8.25
2023-05-04T02:42:17.762Z,8.22
2023-05-04T02:44:46.681Z,8.19
2023-05-04T02:47:14.210Z,8.18
2023-05-04T02:53:54.089Z,8.15
2023-05-04T02:56:21.808Z,8.13
2023-05-04T02:58:49.387Z,8.15
2023-05-04T03:01:18.347Z,8.15
2023-05-04T03:03:46.091Z,8.13
2023-05-04T03:06:13.735Z,8.10
2023-05-04T03:08:41.280Z,8.10
2023-05-04T03:11:08.947Z,8.07
2023-05-04T03:13:36.563Z,8.08
2023-05-04T03:16:05.496Z,8.09
2023-05-04T03:21:20.227Z,8.01
2023-05-04T03:23:48.932Z,7.99
2023-05-04T03:26:17.395Z,7.95
2023-05-04T03:28:45.431Z,7.99
2023-05-04T03:31:13.036Z,7.99
2023-05-04T03:33:42.407Z,7.95
2023-05-04T03:36:10.276Z,7.93
2023-05-04T03:38:39.669Z,7.89
2023-05-04T03:41:07.444Z,7.83
2023-05-04T03:43:35.021Z,7.80
2023-05-04T03:46:02.996Z,7.82
2023-05-04T03:48:30.602Z,7.81
2023-05-04T03:50:59.625Z,7.78
2023-05-04T03:53:27.368Z,7.81
2023-05-04T03:55:55.065Z,7.79
2023-05-04T03:58:22.979Z,7.75
2023-05-04T04:00:50.558Z,7.76
2023-05-04T04:03:19.046Z,7.78
2023-05-04T04:05:46.746Z,7.77
2023-05-04T04:08:15.671Z,7.77
2023-05-04T04:10:43.455Z,7.75
2023-05-04T04:13:11.167Z,7.74
2023-05-04T04:15:38.874Z,7.75
2023-05-04T04:18:06.793Z,7.79
2023-05-04T04:20:34.423Z,7.83
2023-05-04T04:23:01.978Z,7.91
2023-05-04T04:25:31.508Z,7.98
2023-05-04T04:27:59.103Z,7.99
2023-05-04T04:30:26.607Z,8.10
2023-05-04T04:32:56.904Z,8.13
2023-05-04T04:35:24.616Z,8.11
2023-05-04T04:37:52.232Z,8.12
2023-05-04T04:40:19.770Z,8.13
2023-05-04T04:42:48.764Z,8.19
2023-05-04T04:45:16.390Z,8.21
2023-05-04T04:47:45.135Z,8.26
2023-05-04T04:50:13.136Z,8.24
2023-05-04T04:52:41.358Z,8.26
2023-05-04T04:55:09.754Z,8.32
2023-05-04T04:57:37.337Z,8.37
2023-05-04T05:00:09.414Z,8.36
2023-05-04T05:02:37.568Z,8.42
2023-05-04T05:05:05.940Z,8.41
2023-05-04T05:07:33.923Z,8.41
2023-05-04T05:10:01.582Z,8.46
2023-05-04T05:12:29.457Z,8.50
2023-05-04T05:14:57.105Z,8.60
2023-05-04T05:17:27.530Z,8.65
2023-05-04T05:19:55.117Z,8.71
2023-05-04T05:22:22.736Z,8.76
2023-05-04T05:24:50.266Z,8.85
2023-05-04T05:27:18.083Z,8.87
2023-05-04T05:29:45.661Z,8.96
2023-05-04T05:32:13.347Z,8.98
2023-05-04T05:34:42.640Z,9.03
2023-05-04T05:37:10.514Z,9.16
2023-05-04T05:39:38.100Z,9.21
2023-05-04T05:42:06.007Z,9.25
2023-05-04T05:44:37.302Z,9.30
2023-05-04T05:47:04.946Z,9.40
2023-05-04T05:49:32.798Z,9.47
2023-05-04T05:52:02.173Z,9.57
2023-05-04T05:54:30.845Z,9.67
2023-05-04T05:56:58.595Z,9.84
2023-05-04T05:59:26.217Z,9.99
2023-05-04T06:01:53.934Z,10.16
2023-05-04T06:04:21.567Z,10.30
2023-05-04T06:06:49.269Z,10.46
2023-05-04T06:09:18.209Z,10.59
2023-05-04T06:11:46.138Z,10.78
2023-05-04T06:14:13.672Z,10.96
2023-05-04T06:16:41.380Z,11.15
2023-05-04T06:19:09.099Z,11.33
2023-05-04T06:21:36.843Z,11.45
2023-05-04T06:24:04.740Z,11.60
2023-05-04T06:26:33.718Z,11.79
2023-05-04T06:29:01.312Z,11.94
2023-05-04T06:31:29.006Z,12.11
2023-05-04T06:33:57.691Z,12.22
2023-05-04T06:36:26.060Z,12.33
2023-05-04T06:38:55.582Z,12.43
2023-05-04T06:41:23.348Z,12.62
2023-05-04T06:43:52.245Z,12.75
2023-05-04T06:46:20.168Z,12.87
2023-05-04T06:48:47.794Z,13.00
2023-05-04T06:51:16.058Z,13.11
2023-05-04T06:53:43.639Z,13.18
2023-05-04T06:56:11.260Z,13.31
2023-05-04T06:58:38.905Z,13.43
2023-05-04T07:01:09.823Z,13.52
2023-05-04T07:03:38.750Z,13.67
2023-05-04T07:06:06.377Z,13.75
2023-05-04T07:08:34.719Z,13.94
2023-05-04T07:11:02.580Z,14.01
2023-05-04T07:13:30.257Z,14.06
2023-05-04T07:15:57.945Z,14.19
2023-05-04T07:18:26.909Z,14.28
2023-05-04T07:20:58.841Z,14.40
2023-05-04T07:23:33.827Z,14.50
2023-05-04T07:26:01.783Z,14.63
2023-05-04T07:28:29.398Z,14.75
2023-05-04T07:30:56.996Z,14.89
2023-05-04T07:33:25.621Z,14.99
2023-05-04T07:35:59.373Z,15.08
2023-05-04T07:38:27.355Z,15.21
2023-05-04T07:40:55.466Z,15.23
2023-05-04T07:43:23.332Z,15.26
2023-05-04T07:45:53.285Z,15.31
2023-05-04T07:48:21.199Z,15.37
2023-05-04T07:50:50.306Z,15.41
2023-05-04T07:53:20.659Z,15.55
2023-05-04T07:55:48.588Z,15.59
2023-05-04T07:58:16.691Z,15.61
2023-05-04T08:00:44.556Z,15.74
2023-05-04T08:03:12.237Z,15.80
2023-05-04T08:05:39.874Z,15.88
2023-05-04T08:08:09.290Z,15.99
2023-05-04T08:10:38.655Z,16.13
2023-05-04T08:13:06.658Z,16.14
2023-05-04T08:15:34.294Z,16.17
2023-05-04T08:18:02.050Z,16.21
2023-05-04T08:20:29.921Z,16.33
2023-05-04T08:22:57.935Z,16.39
2023-05-04T08:25:25.555Z,16.48
2023-05-04T08:27:54.537Z,16.55
2023-05-04T08:30:22.302Z,16.58
2023-05-04T08:32:51.109Z,16.70
2023-05-04T08:35:18.894Z,16.80
2023-05-04T08:37:46.587Z,17.04
2023-05-04T08:40:15.293Z,17.21
2023-05-04T08:42:47.904Z,17.25
2023-05-04T08:45:17.327Z,17.30
2023-05-04T08:47:45.418Z,17.40
2023-05-04T08:50:13.599Z,17.51
2023-05-04T08:52:46.145Z,17.61
2023-05-04T08:55:14.966Z,17.73
2023-05-04T08:57:44.378Z,17.78
2023-05-04T09:00:13.436Z,17.91
2023-05-04T09:02:42.734Z,18.00
2023-05-04T09:05:12.010Z,18.15
2023-05-04T09:07:39.627Z,18.32
2023-05-04T09:10:08.479Z,18.41
2023-05-04T09:12:37.561Z,18.40
2023-05-04T09:15:16.569Z,18.50
2023-05-04T09:17:57.831Z,18.50
2023-05-04T09:20:26.611Z,18.62
2023-05-04T09:23:06.929Z,18.75
2023-05-04T09:25:35.247Z,18.83
2023-05-04T09:28:02.821Z,18.80
2023-05-04T09:30:30.361Z,18.98
2023-05-04T09:32:59.372Z,19.11
2023-05-04T09:35:33.531Z,19.23
2023-05-04T09:38:02.230Z,19.38
2023-05-04T09:40:33.565Z,19.46
2023-05-04T09:43:01.287Z,19.60
2023-05-04T09:45:39.906Z,19.74
2023-05-04T09:48:19.042Z,19.86
2023-05-04T09:50:52.873Z,19.98
2023-05-04T09:53:23.204Z,20.14
2023-05-04T09:55:59.994Z,20.14
2023-05-04T09:58:31.149Z,20.25
2023-05-04T10:01:01.839Z,20.34
2023-05-04T10:03:31.698Z,20.38
2023-05-04T10:06:00.176Z,20.50
2023-05-04T10:08:28.498Z,20.57
2023-05-04T10:10:56.140Z,20.74
2023-05-04T10:13:24.181Z,20.88
2023-05-04T10:16:12.986Z,21.03
2023-05-04T10:19:02.246Z,21.12
2023-05-04T10:21:33.971Z,21.38
2023-05-04T10:24:31.160Z,21.51
2023-05-04T10:27:08.206Z,21.70
2023-05-04T10:29:36.052Z,21.65
2023-05-04T10:32:04.030Z,21.66
2023-05-04T10:34:34.609Z,21.87
2023-05-04T10:37:03.466Z,21.89
2023-05-04T10:39:32.816Z,22.02
2023-05-04T10:42:02.738Z,22.13
2023-05-04T10:44:31.449Z,22.23
2023-05-04T10:47:00.655Z,22.36
2023-05-04T10:49:28.452Z,22.58
2023-05-04T10:52:08.615Z,22.88
2023-05-04T10:54:37.044Z,23.01
2023-05-04T10:57:06.585Z,23.21
2023-05-04T10:59:36.608Z,23.36
2023-05-04T11:02:06.471Z,23.54
2023-05-04T11:04:34.564Z,23.75
2023-05-04T11:07:04.878Z,23.87
2023-05-04T11:09:38.843Z,23.93
2023-05-04T11:12:10.260Z,23.80
2023-05-04T11:14:42.275Z,23.87
2023-05-04T11:17:26.817Z,24.10
2023-05-04T11:19:54.886Z,24.39
2023-05-04T11:22:22.890Z,24.48
2023-05-04T11:24:52.818Z,24.72
2023-05-04T11:27:22.391Z,24.44
2023-05-04T11:29:56.864Z,24.39
2023-05-04T11:32:34.834Z,24.68
2023-05-04T11:35:02.764Z,24.99
2023-05-04T11:37:31.336Z,25.24
2023-05-04T11:40:00.495Z,25.34
2023-05-04T11:42:28.286Z,25.67
2023-05-04T11:44:56.909Z,25.97
2023-05-04T11:47:26.368Z,26.35
2023-05-04T11:49:54.294Z,26.70
2023-05-04T11:52:23.695Z,27.01
2023-05-04T11:54:56.815Z,27.11
2023-05-04T11:57:25.657Z,27.26
2023-05-04T11:59:53.212Z,27.38
2023-05-04T12:02:21.359Z,27.71
2023-05-04T12:04:48.978Z,27.78
2023-05-04T12:07:16.801Z,27.68
2023-05-04T12:09:45.391Z,27.78
2023-05-04T12:12:13.116Z,27.82
2023-05-04T12:14:50.127Z,28.14
2023-05-04T12:17:17.665Z,28.50
2023-05-04T12:19:50.510Z,28.84
2023-05-04T12:22:18.360Z,28.62
2023-05-04T12:24:45.937Z,28.95
2023-05-04T12:27:14.092Z,29.49
2023-05-04T12:29:41.719Z,29.90
2023-05-04T12:32:10.624Z,29.85
2023-05-04T12:34:38.333Z,30.18
2023-05-04T12:37:06.169Z,30.16
2023-05-04T12:39:34.264Z,30.65
2023-05-04T12:42:02.059Z,31.18
2023-05-04T12:44:29.672Z,31.63
2023-05-04T12:46:57.420Z,31.95
2023-05-04T12:49:26.331Z,32.54
2023-05-04T12:51:53.939Z,33.15
2023-05-04T12:54:21.541Z,33.59
2023-05-04T12:56:49.106Z,33.42
2023-05-04T12:59:16.639Z,33.98
2023-05-04T13:01:44.305Z,34.15
2023-05-04T13:04:11.941Z,34.43
2023-05-04T13:06:42.410Z,34.91
2023-05-04T13:09:10.189Z,35.49
2023-05-04T13:11:37.701Z,35.44
2023-05-04T13:14:05.482Z,35.78
2023-05-04T13:16:33.608Z,34.70
2023-05-04T13:19:01.162Z,34.89
2023-05-04T13:21:28.725Z,35.18
2023-05-04T13:23:59.182Z,35.43
2023-05-04T13:26:26.967Z,35.11
2023-05-04T13:28:54.492Z,35.47
2023-05-04T13:31:22.078Z,35.93
2023-05-04T13:33:50.417Z,36.56
2023-05-04T13:36:18.145Z,36.59
2023-05-04T13:38:45.723Z,36.07
2023-05-04T13:41:14.637Z,36.75
2023-05-04T13:43:42.176Z,37.20
2023-05-04T13:46:09.804Z,37.38
2023-05-04T13:48:37.399Z,36.56
2023-05-04T13:51:05.387Z,36.09
2023-05-04T13:53:32.897Z,36.68
2023-05-04T13:56:00.588Z,38.03
2023-05-04T13:58:29.463Z,38.36
2023-05-04T14:00:57.702Z,38.74
2023-05-04T14:03:25.480Z,39.34
2023-05-04T14:05:53.722Z,38.94
2023-05-04T14:08:21.330Z,38.36
2023-05-04T14:10:48.832Z,37.66
2023-05-04T14:13:16.947Z,38.06
2023-05-04T14:15:46.229Z,38.96
2023-05-04T14:18:13.850Z,38.16
2023-05-04T14:20:41.405Z,39.22
2023-05-04T14:23:08.958Z,40.30
2023-05-04T14:25:36.634Z,41.36
2023-05-04T14:28:04.405Z,41.29
2023-05-04T14:30:33.689Z,41.81
2023-05-04T14:33:03.648Z,42.04
2023-05-04T14:35:31.371Z,41.84
2023-05-04T14:37:58.937Z,41.14
2023-05-04T14:40:26.456Z,41.74
2023-05-04T14:42:54.022Z,42.12
2023-05-04T14:45:21.911Z,39.90
2023-05-04T14:47:49.460Z,39.80
2023-05-04T14:50:18.627Z,39.82
2023-05-04T14:52:46.212Z,40.48
2023-05-04T14:55:14.248Z,41.56
2023-05-04T14:57:42.035Z,41.75
2023-05-04T15:00:11.190Z,43.24
2023-05-04T15:02:39.314Z,43.92
2023-05-04T15:05:09.692Z,43.28
2023-05-04T15:07:38.642Z,43.36
2023-05-04T15:10:08.157Z,44.35
2023-05-04T15:12:36.183Z,44.37
2023-05-04T15:15:03.812Z,44.24
2023-05-04T15:17:31.702Z,43.44
2023-05-04T15:19:59.283Z,42.55
2023-05-04T15:22:26.822Z,42.33
2023-05-04T15:24:56.557Z,40.86
2023-05-04T15:27:24.139Z,38.54
2023-05-04T15:29:51.838Z,38.17
2023-05-04T15:32:19.413Z,37.85
2023-05-04T15:34:57.427Z,36.12
2023-05-04T15:37:31.802Z,36.88
2023-05-04T15:40:02.501Z,36.95
2023-05-04T15:42:30.450Z,37.07
2023-05-04T15:44:58.126Z,37.86
2023-05-04T15:47:25.724Z,37.92
2023-05-04T15:49:53.300Z,38.73
2023-05-04T15:52:20.808Z,39.74
2023-05-04T15:54:48.345Z,40.00
2023-05-04T15:57:17.184Z,39.82
2023-05-04T15:59:47.447Z,39.13
2023-05-04T16:02:15.085Z,36.92
2023-05-04T16:04:42.663Z,35.71
2023-05-04T16:07:10.980Z,35.77
2023-05-04T16:09:38.528Z,36.45
2023-05-04T16:12:06.707Z,38.00
2023-05-04T16:14:35.977Z,39.12
2023-05-04T16:17:03.633Z,40.75
2023-05-04T16:19:31.439Z,41.52
2023-05-04T16:21:59.140Z,42.01
2023-05-04T16:24:26.762Z,42.69
2023-05-04T16:26:54.371Z,42.87
2023-05-04T16:29:21.966Z,42.73
2023-05-04T16:31:50.877Z,43.07
2023-05-04T16:34:18.452Z,43.87
2023-05-04T16:36:46.019Z,43.93
2023-05-04T16:39:14.479Z,44.34
2023-05-04T16:41:46.449Z,44.36
2023-05-04T16:44:13.849Z,44.77
2023-05-04T16:46:41.450Z,44.86
2023-05-04T16:49:11.889Z,44.50
2023-05-04T16:51:41.832Z,44.75
2023-05-04T16:54:09.453Z,44.88
2023-05-04T16:56:37.267Z,43.75
2023-05-04T16:59:05.605Z,42.92
2023-05-04T17:01:33.730Z,42.54
2023-05-04T17:04:01.564Z,41.82
2023-05-04T17:06:31.016Z,41.04
2023-05-04T17:08:58.561Z,40.74
2023-05-04T17:11:26.745Z,39.61
2023-05-04T17:13:54.499Z,38.73
2023-05-04T17:16:22.030Z,38.01
2023-05-04T17:18:49.808Z,37.65
2023-05-04T17:21:17.566Z,37.49
2023-05-04T17:23:46.466Z,38.04
2023-05-04T17:26:14.019Z,38.29
2023-05-04T17:28:41.592Z,38.95
2023-05-04T17:31:10.997Z,39.06
2023-05-04T17:33:38.807Z,38.62
2023-05-04T17:36:07.657Z,38.16
2023-05-04T17:38:35.507Z,37.65
2023-05-04T17:41:04.575Z,36.99
2023-05-04T17:43:32.267Z,36.26
2023-05-04T17:46:00.214Z,35.80
2023-05-04T17:48:28.245Z,35.32
2023-05-04T17:50:56.256Z,34.65
2023-05-04T17:53:23.925Z,33.96
2023-05-04T17:55:51.473Z,33.32
2023-05-04T17:58:20.457Z,32.75
2023-05-04T18:00:49.091Z,32.69
2023-05-04T18:03:18.240Z,32.49
2023-05-04T18:05:46.670Z,32.67
2023-05-04T18:08:14.742Z,32.46
2023-05-04T18:10:42.414Z,31.76
2023-05-04T18:13:10.087Z,30.92
2023-05-04T18:15:39.276Z,29.86
2023-05-04T18:18:06.891Z,29.05
2023-05-04T18:20:34.587Z,28.38
2023-05-04T18:23:02.109Z,27.64
2023-05-04T18:25:29.689Z,27.10
2023-05-04T18:27:58.544Z,26.67
2023-05-04T18:30:26.677Z,26.07
2023-05-04T18:32:55.770Z,25.63
2023-05-04T18:35:23.352Z,25.18
2023-05-04T18:37:50.922Z,24.83
2023-05-04T18:40:18.566Z,24.55
2023-05-04T18:42:46.193Z,24.19
2023-05-04T18:45:13.922Z,23.79
2023-05-04T18:47:41.548Z,23.38
2023-05-04T18:50:11.572Z,23.16
2023-05-04T18:52:39.194Z,22.91
2023-05-04T18:55:07.965Z,22.67
2023-05-04T18:57:35.628Z,22.47
2023-05-04T19:00:03.308Z,22.29
2023-05-04T19:02:31.467Z,22.04
2023-05-04T19:04:59.187Z,21.86
2023-05-04T19:07:28.033Z,21.64
2023-05-04T19:09:56.189Z,21.40
2023-05-04T19:12:23.803Z,21.27
2023-05-04T19:14:51.836Z,21.06
2023-05-04T19:17:19.576Z,20.87
2023-05-04T19:19:47.134Z,20.74
2023-05-04T19:22:15.668Z,20.63
2023-05-04T19:24:44.731Z,20.51
2023-05-04T19:27:12.282Z,20.25
2023-05-04T19:29:39.861Z,20.00
2023-05-04T19:32:19.886Z,19.92
2023-05-04T19:34:51.778Z,19.92
2023-05-04T19:37:19.405Z,19.81
2023-05-04T19:39:48.363Z,19.64
2023-05-04T19:42:16.376Z,19.48
2023-05-04T19:44:43.933Z,19.37
2023-05-04T19:47:11.645Z,19.29
2023-05-04T19:49:39.572Z,19.22
2023-05-04T19:52:07.355Z,19.14
2023-05-04T19:54:35.591Z,19.06
2023-05-04T19:57:04.677Z,18.94
2023-05-04T19:59:32.231Z,18.83
2023-05-04T20:02:00.049Z,18.80
2023-05-04T20:04:27.665Z,18.71
2023-05-04T20:06:55.228Z,18.66
2023-05-04T20:09:22.801Z,18.62
2023-05-04T20:11:50.314Z,18.52
2023-05-04T20:14:19.226Z,18.46
2023-05-04T20:16:46.971Z,18.37
2023-05-04T20:19:14.895Z,18.35
2023-05-04T20:21:42.472Z,18.29
2023-05-04T20:24:11.846Z,18.26
2023-05-04T20:26:39.452Z,18.21
2023-05-04T20:29:07.034Z,18.22
2023-05-04T20:31:36.255Z,18.18
2023-05-04T20:34:03.828Z,18.13
2023-05-04T20:36:31.555Z,18.09
2023-05-04T20:38:59.897Z,18.05
2023-05-04T20:41:27.480Z,18.00
2023-05-04T20:43:55.015Z,17.97
2023-05-04T20:46:22.886Z,17.94
2023-05-04T20:48:51.875Z,17.89
2023-05-04T20:51:19.474Z,17.83
2023-05-04T20:53:47.790Z,17.80
2023-05-04T20:56:15.561Z,17.76
2023-05-04T20:58:43.058Z,17.66
2023-05-04T21:01:10.666Z,17.60
2023-05-04T21:03:38.293Z,17.58
2023-05-04T21:06:07.536Z,17.53
2023-05-04T21:08:35.062Z,17.46
2023-05-04T21:11:02.581Z,17.46
2023-05-04T21:13:30.294Z,17.41
2023-05-04T21:15:59.348Z,17.40
2023-05-04T21:18:27.013Z,17.39
2023-05-04T21:20:54.731Z,17.32
2023-05-04T21:23:24.931Z,17.22
2023-05-04T21:26:00.780Z,17.18
2023-05-04T21:28:28.456Z,17.13
2023-05-04T21:30:56.084Z,17.06
2023-05-04T21:33:23.832Z,16.99
2023-05-04T21:35:51.551Z,16.95
2023-05-04T21:38:21.671Z,16.85
2023-05-04T21:40:51.110Z,16.77
2023-05-04T21:43:18.665Z,16.71
2023-05-04T21:45:46.173Z,16.65
2023-05-04T21:48:13.686Z,16.58
2023-05-04T21:50:41.243Z,16.54
2023-05-04T21:53:08.819Z,16.49
2023-05-04T21:55:36.472Z,16.44
2023-05-04T21:58:05.390Z,16.40
2023-05-04T22:00:33.103Z,16.35
2023-05-04T22:03:01.043Z,16.34
2023-05-04T22:05:28.640Z,16.25
2023-05-04T22:07:56.247Z,16.20
2023-05-04T22:10:24.014Z,16.17
2023-05-04T22:12:51.842Z,16.09
2023-05-04T22:15:20.779Z,16.06
2023-05-04T22:17:48.412Z,16.03
2023-05-04T22:20:16.262Z,16.01
2023-05-04T22:22:44.077Z,15.98
2023-05-04T22:25:11.833Z,15.91
2023-05-04T22:27:39.350Z,15.85
2023-05-04T22:30:08.776Z,15.83
2023-05-04T22:32:37.889Z,15.80
2023-05-04T22:35:06.223Z,15.77
2023-05-04T22:37:33.788Z,15.71
2023-05-04T22:40:04.357Z,15.64
2023-05-04T22:42:32.343Z,15.58
2023-05-04T22:44:59.927Z,15.48
2023-05-04T22:47:27.529Z,15.45
2023-05-04T22:49:56.910Z,15.40
2023-05-04T22:52:25.233Z,15.38
2023-05-04T22:54:52.887Z,15.33
2023-05-04T22:57:20.697Z,15.19
2023-05-04T22:59:48.330Z,15.02
2023-05-04T23:02:16.268Z,14.93
2023-05-04T23:04:43.961Z,14.93
2023-05-04T23:07:13.015Z,14.84
2023-05-04T23:09:43.150Z,14.86
2023-05-04T23:12:10.705Z,14.82
2023-05-04T23:14:38.459Z,14.75
2023-05-04T23:17:06.081Z,14.69
2023-05-04T23:19:33.666Z,14.66
2023-05-04T23:22:01.273Z,14.63
2023-05-04T23:24:30.192Z,14.63
2023-05-04T23:26:58.656Z,14.53
2023-05-04T23:29:26.307Z,14.45
2023-05-04T23:31:54.145Z,14.40
2023-05-04T23:34:21.893Z,14.36
2023-05-04T23:36:49.603Z,14.32
2023-05-04T23:39:17.255Z,14.30
2023-05-04T23:41:46.153Z,14.25
2023-05-04T23:44:13.777Z,14.22
2023-05-04T23:46:41.326Z,14.20
2023-05-04T23:49:08.853Z,14.17
2023-05-04T23:51:36.370Z,14.08
2023-05-04T23:54:04.176Z,14.07
2023-05-04T23:56:32.415Z,14.00
2023-05-04T23:59:01.599Z,14.03
